sensor_id;sensor_type;location;lat;lon;timestamp;P1;durP1;ratioP1;P2;durP2;ratioP2
15393;SDS011;7795;47.986;11.868;2022-08-19T00:01:32;3.37;;;3.07;;
15393;SDS011;7795;47.986;11.868;2022-08-19T00:04:00;3.63;;;3.33;;
15393;SDS011;7795;47.986;11.868;2022-08-19T00:06:28;3.07;;;2.87;;
15393;SDS011;7795;47.986;11.868;2022-08-19T00:08:56;3.27;;;2.97;;
15393;SDS011;7795;47.986;11.868;2022-08-19T00:11:25;3.30;;;3.00;;
15393;SDS011;7795;47.986;11.868;2022-08-19T00:13:52;3.43;;;3.13;;
15393;SDS011;7795;47.986;11.868;2022-08-19T00:16:18;3.07;;;2.87;;
15393;SDS011;7795;47.986;11.868;2022-08-19T00:18:45;2.57;;;2.37;;
15393;SDS011;7795;47.986;11.868;2022-08-19T00:21:11;2.90;;;2.70;;
15393;SDS011;7795;47.986;11.868;2022-08-19T00:23:37;2.73;;;2.53;;
15393;SDS011;7795;47.986;11.868;2022-08-19T00:26:04;2.80;;;2.60;;
15393;SDS011;7795;47.986;11.868;2022-08-19T00:28:31;2.87;;;2.67;;
15393;SDS011;7795;47.986;11.868;2022-08-19T00:31:15;3.30;;;3.00;;
15393;SDS011;7795;47.986;11.868;2022-08-19T00:33:41;2.73;;;2.53;;
15393;SDS011;7795;47.986;11.868;2022-08-19T00:36:08;2.70;;;2.50;;
15393;SDS011;7795;47.986;11.868;2022-08-19T00:38:37;2.77;;;2.57;;
15393;SDS011;7795;47.986;11.868;2022-08-19T00:41:08;3.13;;;2.87;;
15393;SDS011;7795;47.986;11.868;2022-08-19T00:43:35;2.83;;;2.63;;
15393;SDS011;7795;47.986;11.868;2022-08-19T00:46:01;2.37;;;2.17;;
15393;SDS011;7795;47.986;11.868;2022-08-19T00:48:30;2.87;;;2.13;;
15393;SDS011;7795;47.986;11.868;2022-08-19T00:50:58;2.43;;;2.23;;
15393;SDS011;7795;47.986;11.868;2022-08-19T00:53:26;2.40;;;2.20;;
15393;SDS011;7795;47.986;11.868;2022-08-19T00:55:55;2.30;;;2.13;;
15393;SDS011;7795;47.986;11.868;2022-08-19T00:58:26;2.60;;;2.20;;
15393;SDS011;7795;47.986;11.868;2022-08-19T01:00:57;2.47;;;2.27;;
15393;SDS011;7795;47.986;11.868;2022-08-19T01:03:23;2.23;;;2.03;;
15393;SDS011;7795;47.986;11.868;2022-08-19T01:05:50;2.30;;;2.10;;
15393;SDS011;7795;47.986;11.868;2022-08-19T01:08:19;3.30;;;2.80;;
15393;SDS011;7795;47.986;11.868;2022-08-19T01:10:47;2.37;;;2.17;;
15393;SDS011;7795;47.986;11.868;2022-08-19T01:13:15;3.43;;;2.10;;
15393;SDS011;7795;47.986;11.868;2022-08-19T01:15:43;2.40;;;2.20;;
15393;SDS011;7795;47.986;11.868;2022-08-19T01:18:14;1.77;;;1.67;;
15393;SDS011;7795;47.986;11.868;2022-08-19T01:20:41;2.00;;;1.90;;
15393;SDS011;7795;47.986;11.868;2022-08-19T01:23:09;2.33;;;2.13;;
15393;SDS011;7795;47.986;11.868;2022-08-19T01:25:36;2.40;;;2.20;;
15393;SDS011;7795;47.986;11.868;2022-08-19T01:28:06;2.27;;;2.07;;
15393;SDS011;7795;47.986;11.868;2022-08-19T01:30:33;2.30;;;1.97;;
15393;SDS011;7795;47.986;11.868;2022-08-19T01:33:00;2.40;;;2.07;;
15393;SDS011;7795;47.986;11.868;2022-08-19T01:35:30;2.00;;;1.80;;
15393;SDS011;7795;47.986;11.868;2022-08-19T01:37:57;2.27;;;1.63;;
15393;SDS011;7795;47.986;11.868;2022-08-19T01:40:28;2.03;;;1.83;;
15393;SDS011;7795;47.986;11.868;2022-08-19T01:42:56;2.50;;;2.30;;
15393;SDS011;7795;47.986;11.868;2022-08-19T01:45:23;3.03;;;1.90;;
15393;SDS011;7795;47.986;11.868;2022-08-19T01:47:50;1.80;;;1.70;;
15393;SDS011;7795;47.986;11.868;2022-08-19T01:50:16;2.13;;;1.97;;
15393;SDS011;7795;47.986;11.868;2022-08-19T01:52:42;2.30;;;2.10;;
15393;SDS011;7795;47.986;11.868;2022-08-19T01:55:10;2.00;;;1.90;;
15393;SDS011;7795;47.986;11.868;2022-08-19T01:57:40;2.50;;;2.20;;
15393;SDS011;7795;47.986;11.868;2022-08-19T02:00:09;2.13;;;1.87;;
15393;SDS011;7795;47.986;11.868;2022-08-19T02:02:40;1.87;;;1.77;;
15393;SDS011;7795;47.986;11.868;2022-08-19T02:05:06;1.90;;;1.80;;
15393;SDS011;7795;47.986;11.868;2022-08-19T02:07:33;2.70;;;2.50;;
15393;SDS011;7795;47.986;11.868;2022-08-19T02:10:00;2.30;;;2.10;;
15393;SDS011;7795;47.986;11.868;2022-08-19T02:12:28;2.57;;;2.30;;
15393;SDS011;7795;47.986;11.868;2022-08-19T02:14:55;2.33;;;1.90;;
15393;SDS011;7795;47.986;11.868;2022-08-19T02:17:21;2.90;;;2.27;;
15393;SDS011;7795;47.986;11.868;2022-08-19T02:19:47;2.10;;;1.70;;
15393;SDS011;7795;47.986;11.868;2022-08-19T02:22:14;2.47;;;2.27;;
15393;SDS011;7795;47.986;11.868;2022-08-19T02:24:39;2.43;;;1.97;;
15393;SDS011;7795;47.986;11.868;2022-08-19T02:27:05;2.10;;;1.90;;
15393;SDS011;7795;47.986;11.868;2022-08-19T02:29:31;2.13;;;1.93;;
15393;SDS011;7795;47.986;11.868;2022-08-19T02:31:58;2.60;;;2.27;;
15393;SDS011;7795;47.986;11.868;2022-08-19T02:34:24;2.30;;;2.10;;
15393;SDS011;7795;47.986;11.868;2022-08-19T02:36:53;2.47;;;2.27;;
15393;SDS011;7795;47.986;11.868;2022-08-19T02:39:18;2.97;;;2.60;;
15393;SDS011;7795;47.986;11.868;2022-08-19T02:41:44;3.13;;;2.50;;
15393;SDS011;7795;47.986;11.868;2022-08-19T02:44:10;2.30;;;2.10;;
15393;SDS011;7795;47.986;11.868;2022-08-19T02:46:36;2.57;;;2.37;;
15393;SDS011;7795;47.986;11.868;2022-08-19T02:49:06;2.50;;;2.30;;
15393;SDS011;7795;47.986;11.868;2022-08-19T02:51:33;2.50;;;2.30;;
15393;SDS011;7795;47.986;11.868;2022-08-19T02:54:00;3.10;;;2.80;;
15393;SDS011;7795;47.986;11.868;2022-08-19T02:56:27;2.40;;;2.20;;
15393;SDS011;7795;47.986;11.868;2022-08-19T02:58:53;2.70;;;2.50;;
15393;SDS011;7795;47.986;11.868;2022-08-19T03:01:20;4.10;;;2.50;;
15393;SDS011;7795;47.986;11.868;2022-08-19T03:03:47;2.83;;;2.57;;
15393;SDS011;7795;47.986;11.868;2022-08-19T03:06:14;2.57;;;2.37;;
15393;SDS011;7795;47.986;11.868;2022-08-19T03:08:41;2.63;;;2.17;;
15393;SDS011;7795;47.986;11.868;2022-08-19T03:11:13;4.37;;;2.60;;
15393;SDS011;7795;47.986;11.868;2022-08-19T03:13:39;2.60;;;2.40;;
15393;SDS011;7795;47.986;11.868;2022-08-19T03:16:05;2.90;;;2.33;;
15393;SDS011;7795;47.986;11.868;2022-08-19T03:18:31;3.03;;;2.77;;
15393;SDS011;7795;47.986;11.868;2022-08-19T03:20:57;2.63;;;2.40;;
15393;SDS011;7795;47.986;11.868;2022-08-19T03:23:24;1.90;;;1.70;;
15393;SDS011;7795;47.986;11.868;2022-08-19T03:25:51;2.17;;;1.97;;
15393;SDS011;7795;47.986;11.868;2022-08-19T03:28:18;3.57;;;2.23;;
15393;SDS011;7795;47.986;11.868;2022-08-19T03:30:54;2.93;;;2.30;;
15393;SDS011;7795;47.986;11.868;2022-08-19T03:33:21;2.40;;;2.00;;
15393;SDS011;7795;47.986;11.868;2022-08-19T03:35:58;2.30;;;2.10;;
15393;SDS011;7795;47.986;11.868;2022-08-19T03:38:26;6.10;;;2.23;;
15393;SDS011;7795;47.986;11.868;2022-08-19T03:40:52;3.93;;;3.33;;
15393;SDS011;7795;47.986;11.868;2022-08-19T03:43:21;2.97;;;2.77;;
15393;SDS011;7795;47.986;11.868;2022-08-19T03:45:47;3.03;;;2.77;;
15393;SDS011;7795;47.986;11.868;2022-08-19T03:48:13;2.27;;;2.07;;
15393;SDS011;7795;47.986;11.868;2022-08-19T03:50:41;2.63;;;2.20;;
15393;SDS011;7795;47.986;11.868;2022-08-19T03:53:07;2.47;;;2.10;;
15393;SDS011;7795;47.986;11.868;2022-08-19T03:55:39;3.13;;;2.37;;
15393;SDS011;7795;47.986;11.868;2022-08-19T03:58:05;2.77;;;2.57;;
15393;SDS011;7795;47.986;11.868;2022-08-19T04:00:31;2.50;;;2.30;;
15393;SDS011;7795;47.986;11.868;2022-08-19T04:02:58;2.63;;;2.37;;
15393;SDS011;7795;47.986;11.868;2022-08-19T04:05:25;2.70;;;2.50;;
15393;SDS011;7795;47.986;11.868;2022-08-19T04:07:53;2.40;;;1.70;;
15393;SDS011;7795;47.986;11.868;2022-08-19T04:10:23;2.10;;;2.00;;
15393;SDS011;7795;47.986;11.868;2022-08-19T04:12:50;2.30;;;1.93;;
15393;SDS011;7795;47.986;11.868;2022-08-19T04:15:16;2.30;;;1.90;;
15393;SDS011;7795;47.986;11.868;2022-08-19T04:17:42;2.20;;;2.00;;
15393;SDS011;7795;47.986;11.868;2022-08-19T04:20:08;2.57;;;1.70;;
15393;SDS011;7795;47.986;11.868;2022-08-19T04:22:35;1.87;;;1.70;;
15393;SDS011;7795;47.986;11.868;2022-08-19T04:25:00;2.27;;;1.87;;
15393;SDS011;7795;47.986;11.868;2022-08-19T04:27:26;2.47;;;1.97;;
15393;SDS011;7795;47.986;11.868;2022-08-19T04:29:53;3.00;;;2.00;;
15393;SDS011;7795;47.986;11.868;2022-08-19T04:32:20;1.80;;;1.70;;
15393;SDS011;7795;47.986;11.868;2022-08-19T04:34:46;2.90;;;2.33;;
15393;SDS011;7795;47.986;11.868;2022-08-19T04:37:12;3.47;;;2.27;;
15393;SDS011;7795;47.986;11.868;2022-08-19T04:39:38;2.30;;;2.10;;
15393;SDS011;7795;47.986;11.868;2022-08-19T04:42:23;3.00;;;2.27;;
15393;SDS011;7795;47.986;11.868;2022-08-19T04:45:06;2.20;;;2.00;;
15393;SDS011;7795;47.986;11.868;2022-08-19T04:47:35;1.93;;;1.73;;
15393;SDS011;7795;47.986;11.868;2022-08-19T04:50:01;2.03;;;1.83;;
15393;SDS011;7795;47.986;11.868;2022-08-19T04:52:28;6.40;;;2.13;;
15393;SDS011;7795;47.986;11.868;2022-08-19T04:54:57;1.70;;;1.60;;
15393;SDS011;7795;47.986;11.868;2022-08-19T04:57:23;2.20;;;1.60;;
15393;SDS011;7795;47.986;11.868;2022-08-19T04:59:49;2.53;;;1.83;;
15393;SDS011;7795;47.986;11.868;2022-08-19T05:02:20;5.83;;;2.23;;
15393;SDS011;7795;47.986;11.868;2022-08-19T05:04:49;2.00;;;1.80;;
15393;SDS011;7795;47.986;11.868;2022-08-19T05:07:15;1.70;;;1.60;;
15393;SDS011;7795;47.986;11.868;2022-08-19T05:09:41;1.87;;;1.63;;
15393;SDS011;7795;47.986;11.868;2022-08-19T05:12:07;1.60;;;1.50;;
15393;SDS011;7795;47.986;11.868;2022-08-19T05:14:33;2.27;;;2.07;;
15393;SDS011;7795;47.986;11.868;2022-08-19T05:17:01;2.90;;;1.90;;
15393;SDS011;7795;47.986;11.868;2022-08-19T05:19:28;2.13;;;1.93;;
15393;SDS011;7795;47.986;11.868;2022-08-19T05:22:13;2.67;;;1.97;;
15393;SDS011;7795;47.986;11.868;2022-08-19T05:24:57;1.67;;;1.57;;
15393;SDS011;7795;47.986;11.868;2022-08-19T05:27:23;2.73;;;1.87;;
15393;SDS011;7795;47.986;11.868;2022-08-19T05:29:49;2.23;;;2.03;;
15393;SDS011;7795;47.986;11.868;2022-08-19T05:32:14;1.97;;;1.77;;
15393;SDS011;7795;47.986;11.868;2022-08-19T05:34:42;1.70;;;1.60;;
15393;SDS011;7795;47.986;11.868;2022-08-19T05:37:08;2.47;;;2.10;;
15393;SDS011;7795;47.986;11.868;2022-08-19T05:39:34;2.00;;;1.87;;
15393;SDS011;7795;47.986;11.868;2022-08-19T05:42:03;2.40;;;1.90;;
15393;SDS011;7795;47.986;11.868;2022-08-19T05:44:34;2.70;;;2.20;;
15393;SDS011;7795;47.986;11.868;2022-08-19T05:47:02;3.20;;;2.20;;
15393;SDS011;7795;47.986;11.868;2022-08-19T05:49:30;3.10;;;2.40;;
15393;SDS011;7795;47.986;11.868;2022-08-19T05:51:58;4.57;;;2.03;;
15393;SDS011;7795;47.986;11.868;2022-08-19T05:54:27;2.73;;;1.93;;
15393;SDS011;7795;47.986;11.868;2022-08-19T05:56:53;2.97;;;1.87;;
15393;SDS011;7795;47.986;11.868;2022-08-19T05:59:19;3.20;;;2.10;;
15393;SDS011;7795;47.986;11.868;2022-08-19T06:01:46;2.37;;;1.97;;
15393;SDS011;7795;47.986;11.868;2022-08-19T06:04:17;3.00;;;2.07;;
15393;SDS011;7795;47.986;11.868;2022-08-19T06:06:44;3.97;;;2.47;;
15393;SDS011;7795;47.986;11.868;2022-08-19T06:09:12;2.33;;;2.10;;
15393;SDS011;7795;47.986;11.868;2022-08-19T06:11:39;2.37;;;2.00;;
15393;SDS011;7795;47.986;11.868;2022-08-19T06:14:07;3.60;;;2.50;;
15393;SDS011;7795;47.986;11.868;2022-08-19T06:16:34;2.47;;;2.10;;
15393;SDS011;7795;47.986;11.868;2022-08-19T06:19:04;2.63;;;2.30;;
15393;SDS011;7795;47.986;11.868;2022-08-19T06:21:32;3.20;;;2.53;;
15393;SDS011;7795;47.986;11.868;2022-08-19T06:24:02;3.20;;;2.47;;
15393;SDS011;7795;47.986;11.868;2022-08-19T06:26:30;2.60;;;2.20;;
15393;SDS011;7795;47.986;11.868;2022-08-19T06:28:57;2.30;;;2.10;;
15393;SDS011;7795;47.986;11.868;2022-08-19T06:31:24;2.70;;;2.43;;
15393;SDS011;7795;47.986;11.868;2022-08-19T06:33:52;2.57;;;2.37;;
15393;SDS011;7795;47.986;11.868;2022-08-19T06:36:19;2.77;;;2.57;;
15393;SDS011;7795;47.986;11.868;2022-08-19T06:38:46;4.33;;;2.70;;
15393;SDS011;7795;47.986;11.868;2022-08-19T06:41:11;3.53;;;2.30;;
15393;SDS011;7795;47.986;11.868;2022-08-19T06:43:39;2.40;;;2.20;;
15393;SDS011;7795;47.986;11.868;2022-08-19T06:46:11;4.57;;;3.03;;
15393;SDS011;7795;47.986;11.868;2022-08-19T06:48:38;3.43;;;2.83;;
15393;SDS011;7795;47.986;11.868;2022-08-19T06:51:04;2.53;;;2.17;;
15393;SDS011;7795;47.986;11.868;2022-08-19T06:53:30;2.97;;;2.20;;
15393;SDS011;7795;47.986;11.868;2022-08-19T06:55:56;3.23;;;2.20;;
15393;SDS011;7795;47.986;11.868;2022-08-19T06:58:27;3.23;;;2.47;;
15393;SDS011;7795;47.986;11.868;2022-08-19T07:00:58;4.03;;;2.50;;
15393;SDS011;7795;47.986;11.868;2022-08-19T07:03:25;3.07;;;2.83;;
15393;SDS011;7795;47.986;11.868;2022-08-19T07:05:53;2.63;;;2.40;;
15393;SDS011;7795;47.986;11.868;2022-08-19T07:08:19;3.60;;;2.87;;
15393;SDS011;7795;47.986;11.868;2022-08-19T07:10:45;2.90;;;2.60;;
15393;SDS011;7795;47.986;11.868;2022-08-19T07:13:11;3.50;;;3.20;;
15393;SDS011;7795;47.986;11.868;2022-08-19T07:15:37;3.33;;;2.93;;
15393;SDS011;7795;47.986;11.868;2022-08-19T07:18:04;2.67;;;2.47;;
15393;SDS011;7795;47.986;11.868;2022-08-19T07:20:30;3.40;;;3.10;;
15393;SDS011;7795;47.986;11.868;2022-08-19T07:22:57;3.37;;;3.00;;
15393;SDS011;7795;47.986;11.868;2022-08-19T07:25:23;3.33;;;2.93;;
15393;SDS011;7795;47.986;11.868;2022-08-19T07:27:49;3.00;;;2.70;;
15393;SDS011;7795;47.986;11.868;2022-08-19T07:30:15;3.00;;;2.80;;
15393;SDS011;7795;47.986;11.868;2022-08-19T07:32:42;3.10;;;2.80;;
15393;SDS011;7795;47.986;11.868;2022-08-19T07:35:09;3.43;;;2.93;;
15393;SDS011;7795;47.986;11.868;2022-08-19T07:37:35;3.03;;;2.60;;
15393;SDS011;7795;47.986;11.868;2022-08-19T07:40:02;3.53;;;3.23;;
15393;SDS011;7795;47.986;11.868;2022-08-19T07:42:29;4.70;;;3.40;;
15393;SDS011;7795;47.986;11.868;2022-08-19T07:44:55;3.63;;;3.10;;
15393;SDS011;7795;47.986;11.868;2022-08-19T07:47:21;3.83;;;3.50;;
15393;SDS011;7795;47.986;11.868;2022-08-19T07:49:47;5.07;;;3.90;;
15393;SDS011;7795;47.986;11.868;2022-08-19T07:52:15;4.63;;;4.23;;
15393;SDS011;7795;47.986;11.868;2022-08-19T07:54:41;5.23;;;4.47;;
15393;SDS011;7795;47.986;11.868;2022-08-19T07:57:08;5.13;;;3.83;;
15393;SDS011;7795;47.986;11.868;2022-08-19T07:59:34;4.33;;;3.80;;
15393;SDS011;7795;47.986;11.868;2022-08-19T08:02:01;4.40;;;3.73;;
15393;SDS011;7795;47.986;11.868;2022-08-19T08:04:27;4.00;;;3.60;;
15393;SDS011;7795;47.986;11.868;2022-08-19T08:07:12;3.50;;;3.20;;
15393;SDS011;7795;47.986;11.868;2022-08-19T08:09:58;4.00;;;3.70;;
15393;SDS011;7795;47.986;11.868;2022-08-19T08:12:25;3.90;;;3.50;;
15393;SDS011;7795;47.986;11.868;2022-08-19T08:14:54;4.50;;;4.07;;
15393;SDS011;7795;47.986;11.868;2022-08-19T08:17:23;4.67;;;4.13;;
15393;SDS011;7795;47.986;11.868;2022-08-19T08:19:51;8.87;;;4.10;;
15393;SDS011;7795;47.986;11.868;2022-08-19T08:22:18;6.87;;;4.50;;
15393;SDS011;7795;47.986;11.868;2022-08-19T08:25:06;4.33;;;3.93;;
15393;SDS011;7795;47.986;11.868;2022-08-19T08:27:35;4.63;;;4.10;;
15393;SDS011;7795;47.986;11.868;2022-08-19T08:30:02;5.97;;;4.37;;
15393;SDS011;7795;47.986;11.868;2022-08-19T08:32:29;6.37;;;4.53;;
15393;SDS011;7795;47.986;11.868;2022-08-19T08:34:55;6.70;;;4.43;;
15393;SDS011;7795;47.986;11.868;2022-08-19T08:37:21;5.37;;;4.87;;
15393;SDS011;7795;47.986;11.868;2022-08-19T08:39:47;5.90;;;4.70;;
15393;SDS011;7795;47.986;11.868;2022-08-19T08:42:16;5.37;;;4.87;;
15393;SDS011;7795;47.986;11.868;2022-08-19T08:44:49;4.90;;;4.30;;
15393;SDS011;7795;47.986;11.868;2022-08-19T08:47:20;5.23;;;4.73;;
15393;SDS011;7795;47.986;11.868;2022-08-19T08:49:49;4.83;;;4.10;;
15393;SDS011;7795;47.986;11.868;2022-08-19T08:52:20;4.53;;;4.13;;
15393;SDS011;7795;47.986;11.868;2022-08-19T08:54:50;3.67;;;3.37;;
15393;SDS011;7795;47.986;11.868;2022-08-19T08:57:21;4.93;;;3.80;;
15393;SDS011;7795;47.986;11.868;2022-08-19T08:59:52;3.20;;;2.90;;
15393;SDS011;7795;47.986;11.868;2022-08-19T09:02:21;3.80;;;3.50;;
15393;SDS011;7795;47.986;11.868;2022-08-19T09:04:47;3.63;;;3.10;;
15393;SDS011;7795;47.986;11.868;2022-08-19T09:07:16;3.57;;;3.20;;
15393;SDS011;7795;47.986;11.868;2022-08-19T09:09:52;4.23;;;3.83;;
15393;SDS011;7795;47.986;11.868;2022-08-19T09:12:31;3.93;;;3.40;;
15393;SDS011;7795;47.986;11.868;2022-08-19T09:15:02;3.40;;;3.10;;
15393;SDS011;7795;47.986;11.868;2022-08-19T09:17:31;3.50;;;3.20;;
15393;SDS011;7795;47.986;11.868;2022-08-19T09:19:59;3.70;;;3.40;;
15393;SDS011;7795;47.986;11.868;2022-08-19T09:22:30;3.67;;;3.37;;
15393;SDS011;7795;47.986;11.868;2022-08-19T09:24:56;5.43;;;3.70;;
15393;SDS011;7795;47.986;11.868;2022-08-19T09:27:23;3.73;;;3.30;;
15393;SDS011;7795;47.986;11.868;2022-08-19T09:29:52;4.20;;;3.33;;
15393;SDS011;7795;47.986;11.868;2022-08-19T09:32:19;3.30;;;3.00;;
15393;SDS011;7795;47.986;11.868;2022-08-19T09:34:45;3.10;;;2.80;;
15393;SDS011;7795;47.986;11.868;2022-08-19T09:37:11;2.90;;;2.60;;
15393;SDS011;7795;47.986;11.868;2022-08-19T09:39:37;3.33;;;2.67;;
15393;SDS011;7795;47.986;11.868;2022-08-19T09:42:05;2.88;;;2.60;;
15393;SDS011;7795;47.986;11.868;2022-08-19T09:44:36;2.63;;;2.43;;
15393;SDS011;7795;47.986;11.868;2022-08-19T09:47:04;2.67;;;2.47;;
15393;SDS011;7795;47.986;11.868;2022-08-19T09:49:29;3.30;;;3.00;;
15393;SDS011;7795;47.986;11.868;2022-08-19T09:51:56;6.75;;;2.83;;
15393;SDS011;7795;47.986;11.868;2022-08-19T09:54:22;3.77;;;2.80;;
15393;SDS011;7795;47.986;11.868;2022-08-19T09:56:48;2.97;;;2.75;;
15393;SDS011;7795;47.986;11.868;2022-08-19T09:59:14;2.60;;;2.40;;
15393;SDS011;7795;47.986;11.868;2022-08-19T10:01:41;4.05;;;3.65;;
15393;SDS011;7795;47.986;11.868;2022-08-19T10:04:08;3.25;;;2.95;;
15393;SDS011;7795;47.986;11.868;2022-08-19T10:06:35;2.97;;;2.70;;
15393;SDS011;7795;47.986;11.868;2022-08-19T10:09:02;3.75;;;2.40;;
15393;SDS011;7795;47.986;11.868;2022-08-19T10:11:31;3.45;;;2.20;;
15393;SDS011;7795;47.986;11.868;2022-08-19T10:13:57;2.40;;;2.20;;
15393;SDS011;7795;47.986;11.868;2022-08-19T10:16:24;2.75;;;2.47;;
15393;SDS011;7795;47.986;11.868;2022-08-19T10:18:50;4.07;;;2.08;;
15393;SDS011;7795;47.986;11.868;2022-08-19T10:21:19;2.38;;;2.17;;
15393;SDS011;7795;47.986;11.868;2022-08-19T10:23:46;3.00;;;2.78;;
15393;SDS011;7795;47.986;11.868;2022-08-19T10:26:15;2.72;;;2.53;;
15393;SDS011;7795;47.986;11.868;2022-08-19T10:28:42;2.45;;;2.25;;
15393;SDS011;7795;47.986;11.868;2022-08-19T10:31:09;2.80;;;2.60;;
15393;SDS011;7795;47.986;11.868;2022-08-19T10:33:36;3.20;;;2.95;;
15393;SDS011;7795;47.986;11.868;2022-08-19T10:36:04;2.80;;;2.55;;
15393;SDS011;7795;47.986;11.868;2022-08-19T10:38:34;2.90;;;2.60;;
15393;SDS011;7795;47.986;11.868;2022-08-19T10:41:07;3.20;;;2.90;;
15393;SDS011;7795;47.986;11.868;2022-08-19T10:43:34;4.15;;;3.15;;
15393;SDS011;7795;47.986;11.868;2022-08-19T10:46:03;3.60;;;3.30;;
15393;SDS011;7795;47.986;11.868;2022-08-19T10:48:30;3.63;;;2.75;;
15393;SDS011;7795;47.986;11.868;2022-08-19T10:50:56;4.00;;;3.30;;
15393;SDS011;7795;47.986;11.868;2022-08-19T10:53:42;3.13;;;2.83;;
15393;SDS011;7795;47.986;11.868;2022-08-19T10:56:08;3.35;;;3.05;;
15393;SDS011;7795;47.986;11.868;2022-08-19T10:58:52;4.68;;;3.40;;
15393;SDS011;7795;47.986;11.868;2022-08-19T11:01:18;3.47;;;3.17;;
15393;SDS011;7795;47.986;11.868;2022-08-19T11:03:45;4.07;;;3.58;;
15393;SDS011;7795;47.986;11.868;2022-08-19T11:06:11;3.63;;;3.33;;
15393;SDS011;7795;47.986;11.868;2022-08-19T11:08:37;3.38;;;3.08;;
15393;SDS011;7795;47.986;11.868;2022-08-19T11:11:06;3.45;;;3.15;;
15393;SDS011;7795;47.986;11.868;2022-08-19T11:13:33;3.88;;;3.47;;
15393;SDS011;7795;47.986;11.868;2022-08-19T11:16:03;4.68;;;3.03;;
15393;SDS011;7795;47.986;11.868;2022-08-19T11:18:32;3.13;;;2.83;;
15393;SDS011;7795;47.986;11.868;2022-08-19T11:21:04;3.45;;;3.15;;
15393;SDS011;7795;47.986;11.868;2022-08-19T11:23:31;3.50;;;3.20;;
15393;SDS011;7795;47.986;11.868;2022-08-19T11:25:57;3.03;;;2.83;;
15393;SDS011;7795;47.986;11.868;2022-08-19T11:28:26;3.75;;;2.80;;
15393;SDS011;7795;47.986;11.868;2022-08-19T11:30:51;3.40;;;3.05;;
15393;SDS011;7795;47.986;11.868;2022-08-19T11:33:17;4.95;;;4.45;;
15393;SDS011;7795;47.986;11.868;2022-08-19T11:35:44;4.80;;;4.15;;
15393;SDS011;7795;47.986;11.868;2022-08-19T11:38:10;4.07;;;3.67;;
15393;SDS011;7795;47.986;11.868;2022-08-19T11:40:36;4.32;;;3.60;;
15393;SDS011;7795;47.986;11.868;2022-08-19T11:43:02;4.35;;;3.50;;
15393;SDS011;7795;47.986;11.868;2022-08-19T11:45:30;4.03;;;3.63;;
15393;SDS011;7795;47.986;11.868;2022-08-19T11:47:56;3.22;;;2.92;;
15393;SDS011;7795;47.986;11.868;2022-08-19T11:50:22;3.22;;;2.92;;
15393;SDS011;7795;47.986;11.868;2022-08-19T11:52:48;3.40;;;2.88;;
15393;SDS011;7795;47.986;11.868;2022-08-19T11:55:14;3.58;;;3.28;;
15393;SDS011;7795;47.986;11.868;2022-08-19T11:57:40;3.40;;;3.10;;
15393;SDS011;7795;47.986;11.868;2022-08-19T12:00:08;2.90;;;2.60;;
15393;SDS011;7795;47.986;11.868;2022-08-19T12:02:39;2.88;;;2.58;;
15393;SDS011;7795;47.986;11.868;2022-08-19T12:05:05;2.40;;;2.20;;
15393;SDS011;7795;47.986;11.868;2022-08-19T12:07:32;2.33;;;2.00;;
15393;SDS011;7795;47.986;11.868;2022-08-19T12:09:58;2.22;;;2.00;;
15393;SDS011;7795;47.986;11.868;2022-08-19T12:12:24;1.95;;;1.83;;
15393;SDS011;7795;47.986;11.868;2022-08-19T12:14:49;2.47;;;2.05;;
15393;SDS011;7795;47.986;11.868;2022-08-19T12:17:21;2.40;;;1.90;;
15393;SDS011;7795;47.986;11.868;2022-08-19T12:19:49;2.20;;;2.00;;
15393;SDS011;7795;47.986;11.868;2022-08-19T12:22:14;2.13;;;1.75;;
15393;SDS011;7795;47.986;11.868;2022-08-19T12:24:40;2.45;;;1.95;;
15393;SDS011;7795;47.986;11.868;2022-08-19T12:27:06;2.95;;;1.83;;
15393;SDS011;7795;47.986;11.868;2022-08-19T12:29:32;1.98;;;1.88;;
15393;SDS011;7795;47.986;11.868;2022-08-19T12:31:58;2.30;;;2.10;;
15393;SDS011;7795;47.986;11.868;2022-08-19T12:34:27;2.03;;;1.92;;
15393;SDS011;7795;47.986;11.868;2022-08-19T12:36:56;1.92;;;1.83;;
15393;SDS011;7795;47.986;11.868;2022-08-19T12:39:22;2.00;;;1.90;;
15393;SDS011;7795;47.986;11.868;2022-08-19T12:41:48;2.50;;;2.30;;
15393;SDS011;7795;47.986;11.868;2022-08-19T12:44:14;2.05;;;1.85;;
15393;SDS011;7795;47.986;11.868;2022-08-19T12:46:41;1.85;;;1.67;;
15393;SDS011;7795;47.986;11.868;2022-08-19T12:49:06;1.45;;;1.35;;
15393;SDS011;7795;47.986;11.868;2022-08-19T12:51:32;1.95;;;1.85;;
15393;SDS011;7795;47.986;11.868;2022-08-19T12:53:59;1.80;;;1.70;;
15393;SDS011;7795;47.986;11.868;2022-08-19T12:56:26;2.40;;;2.13;;
15393;SDS011;7795;47.986;11.868;2022-08-19T12:58:52;2.40;;;2.20;;
15393;SDS011;7795;47.986;11.868;2022-08-19T13:01:18;1.67;;;1.58;;
15393;SDS011;7795;47.986;11.868;2022-08-19T13:03:45;1.95;;;1.80;;
15393;SDS011;7795;47.986;11.868;2022-08-19T13:06:11;2.83;;;2.53;;
15393;SDS011;7795;47.986;11.868;2022-08-19T13:08:38;4.32;;;3.17;;
15393;SDS011;7795;47.986;11.868;2022-08-19T13:11:09;3.30;;;3.00;;
15393;SDS011;7795;47.986;11.868;2022-08-19T13:13:37;3.35;;;3.05;;
15393;SDS011;7795;47.986;11.868;2022-08-19T13:16:05;4.25;;;3.63;;
15393;SDS011;7795;47.986;11.868;2022-08-19T13:18:32;3.40;;;3.10;;
15393;SDS011;7795;47.986;11.868;2022-08-19T13:21:01;3.17;;;2.88;;
15393;SDS011;7795;47.986;11.868;2022-08-19T13:23:28;3.28;;;2.97;;
15393;SDS011;7795;47.986;11.868;2022-08-19T13:25:55;2.42;;;2.22;;
15393;SDS011;7795;47.986;11.868;2022-08-19T13:28:23;2.78;;;2.38;;
15393;SDS011;7795;47.986;11.868;2022-08-19T13:30:49;3.30;;;2.03;;
15393;SDS011;7795;47.986;11.868;2022-08-19T13:33:33;2.42;;;2.17;;
15393;SDS011;7795;47.986;11.868;2022-08-19T13:36:00;2.10;;;1.90;;
15393;SDS011;7795;47.986;11.868;2022-08-19T13:38:26;1.80;;;1.70;;
15393;SDS011;7795;47.986;11.868;2022-08-19T13:40:53;2.38;;;1.60;;
15393;SDS011;7795;47.986;11.868;2022-08-19T13:43:21;1.65;;;1.55;;
15393;SDS011;7795;47.986;11.868;2022-08-19T13:45:51;1.77;;;1.58;;
15393;SDS011;7795;47.986;11.868;2022-08-19T13:48:20;2.13;;;1.70;;
15393;SDS011;7795;47.986;11.868;2022-08-19T13:50:47;1.58;;;1.48;;
15393;SDS011;7795;47.986;11.868;2022-08-19T13:53:13;1.50;;;1.40;;
15393;SDS011;7795;47.986;11.868;2022-08-19T13:55:39;1.25;;;1.15;;
15393;SDS011;7795;47.986;11.868;2022-08-19T13:58:06;1.13;;;0.90;;
15393;SDS011;7795;47.986;11.868;2022-08-19T14:00:35;1.75;;;1.23;;
15393;SDS011;7795;47.986;11.868;2022-08-19T14:03:02;1.05;;;0.93;;
15393;SDS011;7795;47.986;11.868;2022-08-19T14:05:29;1.13;;;1.02;;
15393;SDS011;7795;47.986;11.868;2022-08-19T14:07:55;1.15;;;0.80;;
15393;SDS011;7795;47.986;11.868;2022-08-19T14:10:22;0.93;;;0.70;;
15393;SDS011;7795;47.986;11.868;2022-08-19T14:12:48;0.98;;;0.80;;
15393;SDS011;7795;47.986;11.868;2022-08-19T14:15:17;0.70;;;0.70;;
15393;SDS011;7795;47.986;11.868;2022-08-19T14:17:44;0.70;;;0.70;;
15393;SDS011;7795;47.986;11.868;2022-08-19T14:20:13;0.93;;;0.40;;
15393;SDS011;7795;47.986;11.868;2022-08-19T14:22:40;0.75;;;0.50;;
15393;SDS011;7795;47.986;11.868;2022-08-19T14:25:07;0.55;;;0.50;;
15393;SDS011;7795;47.986;11.868;2022-08-19T14:27:36;0.65;;;0.65;;
15393;SDS011;7795;47.986;11.868;2022-08-19T14:30:04;0.60;;;0.60;;
15393;SDS011;7795;47.986;11.868;2022-08-19T14:32:31;2.35;;;0.90;;
15393;SDS011;7795;47.986;11.868;2022-08-19T14:34:59;0.50;;;0.50;;
15393;SDS011;7795;47.986;11.868;2022-08-19T14:37:25;0.90;;;0.70;;
15393;SDS011;7795;47.986;11.868;2022-08-19T14:39:51;0.82;;;0.70;;
15393;SDS011;7795;47.986;11.868;2022-08-19T14:42:18;0.57;;;0.57;;
15393;SDS011;7795;47.986;11.868;2022-08-19T14:44:44;0.80;;;0.80;;
15393;SDS011;7795;47.986;11.868;2022-08-19T14:47:10;1.45;;;0.90;;
15393;SDS011;7795;47.986;11.868;2022-08-19T14:49:36;1.20;;;1.00;;
15393;SDS011;7795;47.986;11.868;2022-08-19T14:52:04;0.80;;;0.80;;